This is the latest recevied weather packets stored in our database for station/object AE2A-13. If no packets are shown the sender has not sent any weather packets the latest 10 day(s).
| Time | Temp. | Humidity | Pressure | Rain* | Wind** | Luminosity | Snow |
|---|---|---|---|---|---|---|---|
| 1777749304 | 28.89° C | 69% | 1011.1 hPa | 0 mm | - | - | - |
| 1777742404 | 30.56° C | 68% | 1011.5 hPa | 0 mm | - | - | - |
| 1777740303 | 29.44° C | 71% | 1012.1 hPa | 0 mm | - | - | - |
| 1777738505 | 28.89° C | 72% | 1012.2 hPa | 0 mm | - | - | - |
| 1777738203 | 28.89° C | 73% | 1012.1 hPa | 0 mm | - | - | - |
| 1777493404 | 32.22° C | 51% | 1013.7 hPa | 0 mm | - | - | - |
| 1777491605 | 32.22° C | 53% | 1014.2 hPa | 0 mm | - | - | - |
| 1777491005 | 32.22° C | 52% | 1014.5 hPa | 0 mm | - | - | - |
| 1777490404 | 32.22° C | 53% | 1014.8 hPa | 0 mm | - | - | - |
| 1777490104 | 32.22° C | 55% | 1014.9 hPa | 0 mm | - | - | - |
| 1777487703 | 32.78° C | 53% | 1015.6 hPa | 0 mm | - | - | - |
| 1777485905 | 30.56° C | 58% | 1016.1 hPa | 0 mm | - | - | - |
| 1777484403 | 30.56° C | 60% | 1016.4 hPa | 0 mm | - | - | - |
| 1777482303 | 30° C | 63% | 1016.9 hPa | 0 mm | - | - | - |
| 1777479603 | 28.89° C | 64% | 1017.6 hPa | 0 mm | - | - | - |
| 1777477504 | 28.89° C | 66% | 1018.2 hPa | 0 mm | - | - | - |
| 1777476604 | 28.33° C | 67% | 1018.3 hPa | 0 mm | - | - | - |
| 1777475404 | 27.78° C | 69% | 1018.5 hPa | 0 mm | - | - | - |
| 1777472404 | 25.56° C | 81% | 1018.9 hPa | 0 mm | - | - | - |
| 1777472104 | 25.56° C | 83% | 1018.8 hPa | 0 mm | - | - | - |
| 1777470903 | 25° C | 84% | 1019.2 hPa | 0 mm | - | - | - |
| 1777470304 | 25° C | 85% | 1019 hPa | 0 mm | - | - | - |
| 1777469404 | 23.89° C | 89% | 1018.6 hPa | 0 mm | - | - | - |
| 1777469104 | 23.33° C | 90% | 1018.8 hPa | 0 mm | - | - | - |
| 1777467904 | 21.67° C | 97% | 1019.3 hPa | 0 mm | - | - | - |
* Rain latest hour (hover to see other rain measurements)
** Current wind speed in m/s (hover to see current wind gust speed)